Time;durP1;ratioP1;P1;durP2;ratioP2;P2;SDS_P1;SDS_P2;PMS_P1;PMS_P2;Temp;Humidity;BMP_temperature;BMP_pressure;BME280_temperature;BME280_humidity;BME280_pressure;Samples;Min_cycle;Max_cycle;Signal;HPM_P1;HPM_P2
2023/08/05 00:00:29;;;;;;;5.50;3.10;;;;;;;;;;5021613;28;20195;-53
2023/08/05 00:02:55;;;;;;;4.80;3.40;;;;;;;;;;5011822;28;20248;-51
2023/08/05 00:05:21;;;;;;;4.00;3.27;;;;;;;;;;5023277;28;20193;-52
2023/08/05 00:07:49;;;;;;;3.60;3.30;;;;;;;;;;5018762;28;20197;-52
2023/08/05 00:10:15;;;;;;;5.43;3.77;;;;;;;;;;5021938;28;20560;-53
2023/08/05 00:12:41;;;;;;;5.60;3.57;;;;;;;;;;5015455;28;20221;-52
2023/08/05 00:15:07;;;;;;;3.60;3.30;;;;;;;;;;5020552;28;20197;-52
2023/08/05 00:17:33;;;;;;;3.90;3.50;;;;;;;;;;5016101;28;20197;-52
2023/08/05 00:19:59;;;;;;;5.50;3.40;;;;;;;;;;5022009;28;20328;-52
2023/08/05 00:22:25;;;;;;;5.80;4.00;;;;;;;;;;5017205;28;20624;-53
2023/08/05 00:24:51;;;;;;;4.00;3.40;;;;;;;;;;5017461;28;20195;-52
2023/08/05 00:27:17;;;;;;;4.40;3.83;;;;;;;;;;5013341;28;20667;-53
2023/08/05 00:29:46;;;;;;;5.30;3.57;;;;;;;;;;5022630;28;20584;-53
2023/08/05 00:32:12;;;;;;;6.17;3.47;;;;;;;;;;5020146;28;20216;-52
2023/08/05 00:34:38;;;;;;;5.57;3.90;;;;;;;;;;5021702;28;20616;-53
2023/08/05 00:37:04;;;;;;;3.87;3.40;;;;;;;;;;5018394;28;20195;-52
2023/08/05 00:39:30;;;;;;;6.27;3.47;;;;;;;;;;5022945;28;20191;-52
2023/08/05 00:41:56;;;;;;;3.80;3.10;;;;;;;;;;5014819;28;20194;-53
2023/08/05 00:44:23;;;;;;;3.97;3.57;;;;;;;;;;5014855;28;20197;-53
2023/08/05 00:46:49;;;;;;;5.40;3.50;;;;;;;;;;5018396;28;20195;-53
2023/08/05 00:49:15;;;;;;;8.23;3.57;;;;;;;;;;5019158;28;20191;-53
2023/08/05 00:51:41;;;;;;;9.03;4.10;;;;;;;;;;5015990;28;20201;-52
2023/08/05 00:54:08;;;;;;;4.23;3.80;;;;;;;;;;5013970;28;20188;-52
2023/08/05 00:56:34;;;;;;;4.63;3.70;;;;;;;;;;5016970;28;20246;-53
2023/08/05 00:59:00;;;;;;;5.43;3.37;;;;;;;;;;5017406;28;20186;-52
2023/08/05 01:01:26;;;;;;;4.47;3.97;;;;;;;;;;5018843;28;20195;-53
2023/08/05 01:03:52;;;;;;;3.53;3.23;;;;;;;;;;5019070;28;20194;-52
2023/08/05 01:06:19;;;;;;;3.97;3.43;;;;;;;;;;5020893;28;20292;-52
2023/08/05 01:08:45;;;;;;;4.00;3.63;;;;;;;;;;5019256;28;20192;-52
2023/08/05 01:11:12;;;;;;;5.33;3.80;;;;;;;;;;5019117;28;20586;-52
2023/08/05 01:13:40;;;;;;;5.57;3.50;;;;;;;;;;5020962;28;20635;-52
2023/08/05 01:16:06;;;;;;;8.80;3.50;;;;;;;;;;5023799;28;20342;-52
2023/08/05 01:18:33;;;;;;;4.80;4.33;;;;;;;;;;5020066;28;20204;-52
2023/08/05 01:21:01;;;;;;;4.00;3.70;;;;;;;;;;5019103;28;20657;-52
2023/08/05 01:23:37;;;;;;;4.50;3.67;;;;;;;;;;5014104;28;20246;-53
2023/08/05 01:26:07;;;;;;;4.27;3.80;;;;;;;;;;5018969;28;20201;-52
2023/08/05 01:28:34;;;;;;;4.73;3.90;;;;;;;;;;5023694;28;20194;-52
2023/08/05 01:31:01;;;;;;;4.27;3.90;;;;;;;;;;5029194;28;20644;-55
2023/08/05 01:33:28;;;;;;;4.30;3.90;;;;;;;;;;5013205;28;20204;-55
2023/08/05 01:35:54;;;;;;;6.10;3.70;;;;;;;;;;5016204;28;20229;-55
2023/08/05 01:38:20;;;;;;;4.10;3.80;;;;;;;;;;5015367;28;20635;-55
2023/08/05 01:40:46;;;;;;;5.47;3.97;;;;;;;;;;5023149;28;20492;-53
2023/08/05 01:43:12;;;;;;;5.90;3.80;;;;;;;;;;5017660;28;20215;-52
2023/08/05 01:45:38;;;;;;;3.90;3.47;;;;;;;;;;5017441;28;20204;-53
2023/08/05 01:48:04;;;;;;;8.23;5.40;;;;;;;;;;5019286;28;20196;-52
2023/08/05 01:50:30;;;;;;;5.87;3.63;;;;;;;;;;5015830;28;20754;-52
2023/08/05 01:52:56;;;;;;;4.63;4.23;;;;;;;;;;5009719;28;20259;-54
2023/08/05 01:55:22;;;;;;;4.23;3.20;;;;;;;;;;5016070;28;20220;-52
2023/08/05 01:57:48;;;;;;;3.50;3.20;;;;;;;;;;4996622;28;20222;-53
2023/08/05 02:00:15;;;;;;;5.37;3.83;;;;;;;;;;5018606;28;20196;-52
2023/08/05 02:02:41;;;;;;;5.23;3.70;;;;;;;;;;5018105;28;20202;-52
2023/08/05 02:05:07;;;;;;;6.87;3.87;;;;;;;;;;5018141;28;20742;-52
2023/08/05 02:07:33;;;;;;;5.83;3.77;;;;;;;;;;5017783;28;20194;-52
2023/08/05 02:09:59;;;;;;;4.20;3.23;;;;;;;;;;5020351;28;20729;-52
2023/08/05 02:12:25;;;;;;;4.67;3.70;;;;;;;;;;5019892;28;20215;-52
2023/08/05 02:14:51;;;;;;;4.73;4.07;;;;;;;;;;5020282;28;20270;-52
2023/08/05 02:17:17;;;;;;;4.37;3.80;;;;;;;;;;5018867;28;20609;-53
2023/08/05 02:19:43;;;;;;;4.23;3.83;;;;;;;;;;5022215;28;20190;-52
2023/08/05 02:22:09;;;;;;;3.90;3.60;;;;;;;;;;5018108;28;20194;-52
2023/08/05 02:24:35;;;;;;;4.30;3.90;;;;;;;;;;5016718;28;20203;-53
2023/08/05 02:27:01;;;;;;;4.07;3.77;;;;;;;;;;5019201;28;20575;-52
2023/08/05 02:29:27;;;;;;;5.70;5.13;;;;;;;;;;5014464;28;20208;-52
2023/08/05 02:31:53;;;;;;;7.57;5.03;;;;;;;;;;5024952;28;20222;-52
2023/08/05 02:34:19;;;;;;;8.53;4.97;;;;;;;;;;5018995;28;20240;-52
2023/08/05 02:36:45;;;;;;;5.30;4.80;;;;;;;;;;5014408;28;20724;-52
2023/08/05 02:39:11;;;;;;;8.63;5.50;;;;;;;;;;5020690;28;20259;-54
2023/08/05 02:41:37;;;;;;;5.67;5.17;;;;;;;;;;5017703;28;20186;-53
2023/08/05 02:44:03;;;;;;;7.87;5.00;;;;;;;;;;5025955;28;20196;-52
2023/08/05 02:46:29;;;;;;;6.53;4.97;;;;;;;;;;5020768;28;20660;-52
2023/08/05 02:48:55;;;;;;;6.00;4.90;;;;;;;;;;5020440;28;20194;-52
2023/08/05 02:51:21;;;;;;;6.23;4.80;;;;;;;;;;5016536;28;20195;-56
2023/08/05 02:53:47;;;;;;;5.53;4.90;;;;;;;;;;5020085;28;20230;-55
2023/08/05 02:56:13;;;;;;;6.53;5.40;;;;;;;;;;5019981;28;20198;-55
2023/08/05 02:58:39;;;;;;;5.90;4.97;;;;;;;;;;5022761;28;20651;-55
2023/08/05 03:01:07;;;;;;;6.10;4.43;;;;;;;;;;5017112;28;20220;-55
2023/08/05 03:03:33;;;;;;;7.47;6.10;;;;;;;;;;5016998;28;20602;-55
2023/08/05 03:05:59;;;;;;;6.33;5.03;;;;;;;;;;5023455;28;21025;-56
2023/08/05 03:08:25;;;;;;;5.50;4.57;;;;;;;;;;5021775;28;20666;-55
2023/08/05 03:10:58;;;;;;;12.40;5.07;;;;;;;;;;5017234;28;20667;-55
2023/08/05 03:13:24;;;;;;;8.07;5.27;;;;;;;;;;5018291;28;20213;-55
2023/08/05 03:15:50;;;;;;;8.27;4.90;;;;;;;;;;5018163;28;20739;-55
2023/08/05 03:18:16;;;;;;;5.80;4.37;;;;;;;;;;5021209;28;20187;-55
2023/08/05 03:20:42;;;;;;;6.43;4.97;;;;;;;;;;5017033;28;20194;-55
2023/08/05 03:23:08;;;;;;;5.97;4.57;;;;;;;;;;5015266;28;20246;-55
2023/08/05 03:25:34;;;;;;;5.90;5.30;;;;;;;;;;5011911;28;20253;-55
2023/08/05 03:28:00;;;;;;;5.97;5.47;;;;;;;;;;5018477;28;20602;-55
2023/08/05 03:30:26;;;;;;;8.13;5.00;;;;;;;;;;5022114;28;20704;-55
2023/08/05 03:32:52;;;;;;;4.50;4.17;;;;;;;;;;5021459;28;20239;-55
2023/08/05 03:35:19;;;;;;;5.57;5.07;;;;;;;;;;5020541;28;20642;-55
2023/08/05 03:37:45;;;;;;;6.33;5.67;;;;;;;;;;5012132;28;20196;-55
2023/08/05 03:40:12;;;;;;;9.63;5.53;;;;;;;;;;5022353;28;20557;-55
2023/08/05 03:42:39;;;;;;;5.40;4.90;;;;;;;;;;5017262;28;20665;-57
2023/08/05 03:45:06;;;;;;;5.97;4.90;;;;;;;;;;5020403;28;20330;-55
2023/08/05 03:47:33;;;;;;;7.20;5.13;;;;;;;;;;5015912;28;20304;-52
2023/08/05 03:49:59;;;;;;;6.60;5.23;;;;;;;;;;5017143;28;20242;-52
2023/08/05 03:52:26;;;;;;;8.47;5.33;;;;;;;;;;5020336;28;20213;-51
2023/08/05 03:54:52;;;;;;;6.57;5.80;;;;;;;;;;5018557;28;20201;-51
2023/08/05 03:57:18;;;;;;;7.53;5.77;;;;;;;;;;5015924;28;20186;-52
2023/08/05 03:59:46;;;;;;;6.63;5.90;;;;;;;;;;5018083;28;20195;-52
2023/08/05 04:02:14;;;;;;;7.10;6.33;;;;;;;;;;5018432;28;20281;-53
2023/08/05 04:04:42;;;;;;;6.40;5.80;;;;;;;;;;5019563;28;20714;-52
2023/08/05 04:07:08;;;;;;;6.63;5.77;;;;;;;;;;5015222;28;20199;-52
2023/08/05 04:09:36;;;;;;;7.20;6.03;;;;;;;;;;5017567;28;20796;-52
2023/08/05 04:12:05;;;;;;;9.63;6.00;;;;;;;;;;5018376;28;20364;-52
2023/08/05 04:14:31;;;;;;;7.00;6.23;;;;;;;;;;5015498;28;20201;-58
2023/08/05 04:16:57;;;;;;;7.03;5.60;;;;;;;;;;5020335;28;20193;-52
2023/08/05 04:19:24;;;;;;;6.43;5.80;;;;;;;;;;5017138;28;20323;-52
2023/08/05 04:21:52;;;;;;;8.90;5.57;;;;;;;;;;5017979;28;20214;-55
2023/08/05 04:24:22;;;;;;;9.63;5.93;;;;;;;;;;5020212;28;20245;-55
2023/08/05 04:26:48;;;;;;;6.87;5.43;;;;;;;;;;5020531;28;20773;-56
2023/08/05 04:29:17;;;;;;;6.40;5.80;;;;;;;;;;5018626;28;20187;-56
2023/08/05 04:31:43;;;;;;;7.37;5.87;;;;;;;;;;5022435;28;20834;-56
2023/08/05 04:34:10;;;;;;;7.03;5.63;;;;;;;;;;5020097;28;20210;-55
2023/08/05 04:36:37;;;;;;;6.37;5.40;;;;;;;;;;5021196;28;20230;-57
2023/08/05 04:39:04;;;;;;;5.90;5.40;;;;;;;;;;5022598;28;20183;-54
2023/08/05 04:41:30;;;;;;;9.03;6.50;;;;;;;;;;5022222;28;20200;-55
2023/08/05 04:43:57;;;;;;;6.40;5.80;;;;;;;;;;5020170;28;20674;-56
2023/08/05 04:46:26;;;;;;;6.80;6.13;;;;;;;;;;5018391;28;20195;-60
2023/08/05 04:48:53;;;;;;;13.43;6.80;;;;;;;;;;5016944;28;20642;-56
2023/08/05 04:51:20;;;;;;;7.63;6.97;;;;;;;;;;5007239;28;20194;-57
2023/08/05 04:53:46;;;;;;;8.63;6.73;;;;;;;;;;5022028;28;20605;-56
2023/08/05 04:56:16;;;;;;;11.87;7.20;;;;;;;;;;5006364;28;20187;-56
2023/08/05 04:58:42;;;;;;;7.27;6.53;;;;;;;;;;5018905;28;20214;-56
2023/08/05 05:01:08;;;;;;;8.00;6.60;;;;;;;;;;5016424;28;20669;-56
2023/08/05 05:03:38;;;;;;;6.90;6.27;;;;;;;;;;5019312;28;20252;-56
2023/08/05 05:06:04;;;;;;;7.40;6.70;;;;;;;;;;5023147;28;20276;-57
2023/08/05 05:08:31;;;;;;;9.87;7.10;;;;;;;;;;5022537;28;20202;-56
2023/08/05 05:10:57;;;;;;;10.27;7.00;;;;;;;;;;5022008;28;20228;-56
2023/08/05 05:13:24;;;;;;;8.53;7.00;;;;;;;;;;5005316;28;20689;-61
2023/08/05 05:15:52;;;;;;;8.00;7.17;;;;;;;;;;5022676;28;20263;-56
2023/08/05 05:18:19;;;;;;;9.33;8.27;;;;;;;;;;5022830;28;20674;-56
2023/08/05 05:20:53;;;;;;;8.47;7.57;;;;;;;;;;5023045;28;20199;-55
2023/08/05 05:23:19;;;;;;;13.93;7.77;;;;;;;;;;5012943;28;20694;-56
2023/08/05 05:25:45;;;;;;;10.93;8.37;;;;;;;;;;5016819;28;20651;-55
2023/08/05 05:28:12;;;;;;;8.80;8.00;;;;;;;;;;5016178;28;20294;-56
2023/08/05 05:30:38;;;;;;;17.03;8.53;;;;;;;;;;5016297;28;20337;-56
2023/08/05 05:33:04;;;;;;;9.07;7.90;;;;;;;;;;5017876;28;20219;-56
2023/08/05 05:35:30;;;;;;;8.87;8.00;;;;;;;;;;5017143;28;20223;-56
2023/08/05 05:37:56;;;;;;;9.13;8.13;;;;;;;;;;5021099;28;20197;-56
2023/08/05 05:40:22;;;;;;;9.50;8.33;;;;;;;;;;5017437;28;20186;-56
2023/08/05 05:42:49;;;;;;;7.70;6.87;;;;;;;;;;5023906;28;20218;-53
2023/08/05 05:45:15;;;;;;;10.40;8.90;;;;;;;;;;5018955;28;20214;-53
2023/08/05 05:47:42;;;;;;;12.63;8.90;;;;;;;;;;5022416;28;20197;-53
2023/08/05 05:50:08;;;;;;;14.33;9.00;;;;;;;;;;5018961;28;20679;-52
2023/08/05 05:52:35;;;;;;;13.17;8.87;;;;;;;;;;5021164;28;20209;-52
2023/08/05 05:55:02;;;;;;;8.13;7.33;;;;;;;;;;5021506;28;20191;-53
2023/08/05 05:57:28;;;;;;;9.13;8.33;;;;;;;;;;5018552;28;20274;-52
2023/08/05 05:59:56;;;;;;;8.70;7.53;;;;;;;;;;5020037;28;20278;-52
2023/08/05 06:02:22;;;;;;;8.53;7.33;;;;;;;;;;5019168;28;20403;-52
2023/08/05 06:04:48;;;;;;;8.67;7.60;;;;;;;;;;5018675;28;20201;-52
2023/08/05 06:07:14;;;;;;;8.03;6.97;;;;;;;;;;5019619;28;20223;-52
2023/08/05 06:09:40;;;;;;;10.10;7.87;;;;;;;;;;5020680;28;20659;-52
2023/08/05 06:12:09;;;;;;;8.83;7.73;;;;;;;;;;5020937;28;20738;-51
2023/08/05 06:14:36;;;;;;;7.63;6.93;;;;;;;;;;5022531;28;20221;-53
2023/08/05 06:17:03;;;;;;;8.43;7.53;;;;;;;;;;5022286;28;20190;-52
2023/08/05 06:19:29;;;;;;;7.43;6.63;;;;;;;;;;5023177;28;20644;-52
2023/08/05 06:21:55;;;;;;;7.47;6.80;;;;;;;;;;5019056;28;20202;-53
2023/08/05 06:24:21;;;;;;;7.40;6.80;;;;;;;;;;5016324;28;20640;-53
2023/08/05 06:26:47;;;;;;;7.17;6.43;;;;;;;;;;5018977;28;20201;-52
2023/08/05 06:29:13;;;;;;;10.13;6.93;;;;;;;;;;5021713;28;20183;-53
2023/08/05 06:31:39;;;;;;;8.37;6.87;;;;;;;;;;5022229;28;20215;-52
2023/08/05 06:34:05;;;;;;;7.50;6.80;;;;;;;;;;5014198;28;20548;-52
2023/08/05 06:36:31;;;;;;;10.07;7.20;;;;;;;;;;5015993;28;21031;-52
2023/08/05 06:38:57;;;;;;;7.47;6.83;;;;;;;;;;5024545;28;20198;-53
2023/08/05 06:41:23;;;;;;;9.80;8.47;;;;;;;;;;5020908;28;20195;-52
2023/08/05 06:43:50;;;;;;;7.57;6.77;;;;;;;;;;5019701;28;20271;-53
2023/08/05 06:46:16;;;;;;;9.37;7.03;;;;;;;;;;5016212;28;20181;-52
2023/08/05 06:48:42;;;;;;;17.90;7.77;;;;;;;;;;5020320;28;20191;-52
2023/08/05 06:51:08;;;;;;;7.30;6.60;;;;;;;;;;5025675;28;20196;-53
2023/08/05 06:53:39;;;;;;;7.40;6.70;;;;;;;;;;5017442;28;20210;-53
2023/08/05 06:56:05;;;;;;;12.53;11.23;;;;;;;;;;5022312;28;20647;-52
2023/08/05 06:58:31;;;;;;;8.93;8.23;;;;;;;;;;5015965;28;20716;-53
2023/08/05 07:00:57;;;;;;;13.37;12.10;;;;;;;;;;5017547;28;20192;-52
2023/08/05 07:03:24;;;;;;;12.50;11.40;;;;;;;;;;5022151;28;20543;-52
2023/08/05 07:05:54;;;;;;;13.33;12.10;;;;;;;;;;5018849;28;20729;-52
2023/08/05 07:08:22;;;;;;;12.60;11.43;;;;;;;;;;5026294;28;20190;-52
2023/08/05 07:10:57;;;;;;;14.80;11.20;;;;;;;;;;5020207;28;20199;-53
2023/08/05 07:13:23;;;;;;;15.10;12.67;;;;;;;;;;5019798;28;20239;-51
2023/08/05 07:15:49;;;;;;;12.80;11.50;;;;;;;;;;5016508;28;20248;-53
2023/08/05 07:18:15;;;;;;;12.93;11.23;;;;;;;;;;5015636;28;20247;-52
2023/08/05 07:20:42;;;;;;;11.73;10.73;;;;;;;;;;5020863;28;20241;-52
2023/08/05 07:23:08;;;;;;;11.20;10.30;;;;;;;;;;5019918;28;20670;-52
2023/08/05 07:25:34;;;;;;;14.10;12.13;;;;;;;;;;5020477;28;20190;-52
2023/08/05 07:28:00;;;;;;;12.37;11.27;;;;;;;;;;5020185;28;20212;-52
2023/08/05 07:30:27;;;;;;;13.40;11.57;;;;;;;;;;5018291;28;20258;-53
2023/08/05 07:32:54;;;;;;;12.03;11.03;;;;;;;;;;5019643;28;20566;-52
2023/08/05 07:35:20;;;;;;;12.50;11.17;;;;;;;;;;5019999;28;20225;-52
2023/08/05 07:37:47;;;;;;;14.03;12.73;;;;;;;;;;5006269;28;20597;-52
2023/08/05 07:40:14;;;;;;;12.80;11.50;;;;;;;;;;5021420;28;20625;-52
2023/08/05 07:42:42;;;;;;;13.70;12.40;;;;;;;;;;5019085;28;20557;-53
2023/08/05 07:45:16;;;;;;;12.20;11.17;;;;;;;;;;5018248;28;20194;-53
2023/08/05 07:47:43;;;;;;;14.90;12.83;;;;;;;;;;5025179;28;20194;-53
2023/08/05 07:50:10;;;;;;;13.17;12.03;;;;;;;;;;5004697;28;20609;-52
2023/08/05 07:52:37;;;;;;;13.40;12.07;;;;;;;;;;5013608;28;20797;-53
2023/08/05 07:55:04;;;;;;;12.67;11.47;;;;;;;;;;5020165;28;20189;-52
2023/08/05 07:57:31;;;;;;;12.93;11.57;;;;;;;;;;5021588;28;20194;-52
2023/08/05 07:59:58;;;;;;;12.80;10.80;;;;;;;;;;5025470;28;20186;-51
2023/08/05 08:02:24;;;;;;;11.87;10.87;;;;;;;;;;5016085;28;20224;-54
2023/08/05 08:04:54;;;;;;;11.93;10.73;;;;;;;;;;5022778;28;20641;-55
2023/08/05 08:07:21;;;;;;;13.57;11.07;;;;;;;;;;5021007;28;20192;-55
2023/08/05 08:09:47;;;;;;;12.80;11.60;;;;;;;;;;5016779;28;20234;-55
2023/08/05 08:12:14;;;;;;;12.83;11.20;;;;;;;;;;5020000;28;20672;-55
2023/08/05 08:14:40;;;;;;;11.97;10.73;;;;;;;;;;5019829;28;20189;-55
2023/08/05 08:17:06;;;;;;;11.60;10.47;;;;;;;;;;5022031;28;20795;-55
2023/08/05 08:19:32;;;;;;;11.93;10.93;;;;;;;;;;5018820;28;20204;-55
2023/08/05 08:21:58;;;;;;;12.20;10.90;;;;;;;;;;5016358;28;20281;-56
2023/08/05 08:24:25;;;;;;;12.23;10.53;;;;;;;;;;5019069;28;20186;-55
2023/08/05 08:26:52;;;;;;;11.67;10.47;;;;;;;;;;5003095;28;20187;-55
2023/08/05 08:29:18;;;;;;;11.53;10.33;;;;;;;;;;5019116;28;20182;-55
2023/08/05 08:31:45;;;;;;;11.80;10.53;;;;;;;;;;5020738;28;20218;-54
2023/08/05 08:34:11;;;;;;;12.30;10.97;;;;;;;;;;5016665;28;20704;-54
2023/08/05 08:36:37;;;;;;;11.30;10.23;;;;;;;;;;5017275;28;20226;-54
2023/08/05 08:39:04;;;;;;;12.27;11.27;;;;;;;;;;5019498;28;20458;-54
2023/08/05 08:41:32;;;;;;;13.87;10.13;;;;;;;;;;5018355;28;20182;-54
2023/08/05 08:44:02;;;;;;;10.80;9.70;;;;;;;;;;5021395;28;20186;-54
2023/08/05 08:46:28;;;;;;;9.67;8.87;;;;;;;;;;5017025;28;20224;-54
2023/08/05 08:48:55;;;;;;;10.13;9.13;;;;;;;;;;5018158;28;20225;-54
2023/08/05 08:51:21;;;;;;;9.17;8.27;;;;;;;;;;5004300;28;20205;-54
2023/08/05 08:53:48;;;;;;;9.43;8.53;;;;;;;;;;5020290;28;20218;-54
2023/08/05 08:56:14;;;;;;;9.37;8.47;;;;;;;;;;5020067;28;20189;-54
2023/08/05 08:58:40;;;;;;;8.53;7.77;;;;;;;;;;5022312;28;20327;-54
2023/08/05 09:01:07;;;;;;;9.00;8.17;;;;;;;;;;5018753;28;20174;-55
2023/08/05 09:03:34;;;;;;;9.93;8.63;;;;;;;;;;5015645;28;20271;-54
2023/08/05 09:06:00;;;;;;;8.70;7.80;;;;;;;;;;5019037;28;21950;-54
2023/08/05 09:08:26;;;;;;;9.13;8.23;;;;;;;;;;5021249;28;20277;-54
2023/08/05 09:10:52;;;;;;;7.43;6.83;;;;;;;;;;5023766;28;20204;-54
2023/08/05 09:13:19;;;;;;;6.97;6.37;;;;;;;;;;5019062;28;20731;-54
2023/08/05 09:15:50;;;;;;;6.80;6.30;;;;;;;;;;5003543;28;20300;-54
2023/08/05 09:18:16;;;;;;;7.13;6.50;;;;;;;;;;5003454;28;20186;-53
2023/08/05 09:20:42;;;;;;;6.90;6.30;;;;;;;;;;5025278;28;20209;-54
2023/08/05 09:23:10;;;;;;;6.97;6.37;;;;;;;;;;5022904;28;20649;-53
2023/08/05 09:25:40;;;;;;;7.43;6.30;;;;;;;;;;5022606;28;20190;-53
2023/08/05 09:28:06;;;;;;;7.50;6.80;;;;;;;;;;5023699;28;20210;-53
2023/08/05 09:30:33;;;;;;;6.93;6.23;;;;;;;;;;5022028;28;20224;-54
2023/08/05 09:33:00;;;;;;;6.20;5.70;;;;;;;;;;5020411;28;20205;-55
2023/08/05 09:35:26;;;;;;;7.03;6.37;;;;;;;;;;5021051;28;20680;-53
2023/08/05 09:37:53;;;;;;;7.07;6.47;;;;;;;;;;5018526;28;20186;-54
2023/08/05 09:40:21;;;;;;;6.83;6.10;;;;;;;;;;5018481;28;20185;-54
2023/08/05 09:42:51;;;;;;;7.17;6.47;;;;;;;;;;5024110;28;20550;-55
2023/08/05 09:45:19;;;;;;;6.33;5.93;;;;;;;;;;5023041;28;20546;-54
2023/08/05 09:47:47;;;;;;;6.97;6.23;;;;;;;;;;5022366;28;20182;-54
2023/08/05 09:50:14;;;;;;;6.20;5.67;;;;;;;;;;5020506;28;20190;-54
2023/08/05 09:52:40;;;;;;;6.00;5.33;;;;;;;;;;5024998;28;20233;-54
2023/08/05 09:55:09;;;;;;;5.90;5.40;;;;;;;;;;5021445;28;20178;-54
2023/08/05 09:57:37;;;;;;;6.23;5.73;;;;;;;;;;5023085;28;20228;-54
2023/08/05 10:00:08;;;;;;;6.73;6.20;;;;;;;;;;5029294;28;20261;-55
2023/08/05 10:02:34;;;;;;;6.07;5.60;;;;;;;;;;5022631;28;20194;-55
2023/08/05 10:05:02;;;;;;;5.63;5.20;;;;;;;;;;5018249;28;20682;-55
2023/08/05 10:07:28;;;;;;;6.53;5.47;;;;;;;;;;5017212;28;20237;-54
2023/08/05 10:09:54;;;;;;;5.60;5.10;;;;;;;;;;5027949;28;20273;-56
2023/08/05 10:12:26;;;;;;;4.73;4.33;;;;;;;;;;5028382;28;20213;-53
2023/08/05 10:14:52;;;;;;;4.77;4.37;;;;;;;;;;5002156;28;20185;-53
2023/08/05 10:17:19;;;;;;;4.30;4.00;;;;;;;;;;5017516;28;20265;-53
2023/08/05 10:19:51;;;;;;;3.80;3.40;;;;;;;;;;5023873;28;20190;-53
2023/08/05 10:22:24;;;;;;;4.17;3.83;;;;;;;;;;5022349;28;20241;-52
2023/08/05 10:24:54;;;;;;;3.90;3.60;;;;;;;;;;5020860;28;20294;-51
2023/08/05 10:27:37;;;;;;;4.17;3.87;;;;;;;;;;5023639;28;20194;-52
2023/08/05 10:30:08;;;;;;;4.50;4.20;;;;;;;;;;5023860;28;20186;-50
2023/08/05 10:32:35;;;;;;;4.27;3.87;;;;;;;;;;5023449;28;20276;-52
2023/08/05 10:35:20;;;;;;;4.30;4.00;;;;;;;;;;5022964;28;20662;-52
2023/08/05 10:37:49;;;;;;;4.53;3.80;;;;;;;;;;5017472;28;20583;-53
2023/08/05 10:40:35;;;;;;;4.13;3.70;;;;;;;;;;5020565;28;20181;-53
2023/08/05 10:43:02;;;;;;;3.90;3.67;;;;;;;;;;5022661;28;20324;-54
2023/08/05 10:45:28;;;;;;;4.47;4.17;;;;;;;;;;5022616;28;20249;-53
2023/08/05 10:47:55;;;;;;;4.73;4.13;;;;;;;;;;5023944;28;20522;-55
2023/08/05 10:50:21;;;;;;;3.90;3.50;;;;;;;;;;5023841;28;20238;-53
2023/08/05 10:52:50;;;;;;;3.67;3.30;;;;;;;;;;5016284;28;20222;-54
2023/08/05 10:55:16;;;;;;;4.30;3.77;;;;;;;;;;5021708;28;20218;-54
2023/08/05 10:57:45;;;;;;;4.00;3.60;;;;;;;;;;5021050;28;20206;-54
2023/08/05 11:00:17;;;;;;;4.00;3.70;;;;;;;;;;5022573;28;20221;-54
2023/08/05 11:02:44;;;;;;;3.40;3.17;;;;;;;;;;5019806;28;20190;-54
2023/08/05 11:05:10;;;;;;;3.60;3.30;;;;;;;;;;5019306;28;20196;-54
2023/08/05 11:07:40;;;;;;;3.87;3.57;;;;;;;;;;5021214;28;20248;-55
2023/08/05 11:10:06;;;;;;;3.40;3.00;;;;;;;;;;5021059;28;20179;-55
2023/08/05 11:12:33;;;;;;;3.03;2.80;;;;;;;;;;5025978;28;20318;-54
2023/08/05 11:15:00;;;;;;;3.20;3.00;;;;;;;;;;5021812;28;20223;-56
2023/08/05 11:17:26;;;;;;;3.00;2.80;;;;;;;;;;5017585;28;20201;-54
2023/08/05 11:19:56;;;;;;;3.10;2.80;;;;;;;;;;5019829;28;20194;-55
2023/08/05 11:22:26;;;;;;;2.80;2.60;;;;;;;;;;5022308;28;20248;-55
2023/08/05 11:24:59;;;;;;;3.40;3.10;;;;;;;;;;5021013;28;20549;-55
2023/08/05 11:27:31;;;;;;;3.13;2.83;;;;;;;;;;5027290;28;20707;-56
2023/08/05 11:29:57;;;;;;;3.43;3.13;;;;;;;;;;5022228;28;20658;-57
2023/08/05 11:32:23;;;;;;;3.30;3.00;;;;;;;;;;5020542;28;20221;-56
2023/08/05 11:34:50;;;;;;;3.23;3.00;;;;;;;;;;5015930;28;20635;-56
2023/08/05 11:37:23;;;;;;;3.30;3.10;;;;;;;;;;5021540;28;20319;-55
2023/08/05 11:39:49;;;;;;;4.07;3.37;;;;;;;;;;5002633;28;20189;-55
2023/08/05 11:42:16;;;;;;;3.03;2.80;;;;;;;;;;5023673;28;20184;-56
2023/08/05 11:44:42;;;;;;;3.90;3.47;;;;;;;;;;5020457;28;20210;-55
2023/08/05 11:47:08;;;;;;;3.50;2.73;;;;;;;;;;5024739;28;20194;-55
2023/08/05 11:49:34;;;;;;;3.00;2.80;;;;;;;;;;5005444;28;20191;-56
2023/08/05 11:52:04;;;;;;;4.77;3.07;;;;;;;;;;5021500;28;20203;-51
2023/08/05 11:54:35;;;;;;;3.83;3.53;;;;;;;;;;5022649;28;20211;-52
2023/08/05 11:57:01;;;;;;;3.57;3.27;;;;;;;;;;5022592;28;20211;-52
2023/08/05 11:59:46;;;;;;;3.13;2.90;;;;;;;;;;5019888;28;20203;-52
2023/08/05 12:02:13;;;;;;;2.90;2.70;;;;;;;;;;5023469;28;20967;-52
2023/08/05 12:04:44;;;;;;;4.50;3.20;;;;;;;;;;5020127;28;20657;-52
2023/08/05 12:07:17;;;;;;;3.10;2.87;;;;;;;;;;5021391;28;20661;-53
2023/08/05 12:09:43;;;;;;;2.90;2.67;;;;;;;;;;5021910;28;20514;-53
2023/08/05 12:12:16;;;;;;;3.40;3.10;;;;;;;;;;5019253;28;20199;-52
2023/08/05 12:14:43;;;;;;;3.47;2.90;;;;;;;;;;5024836;28;20625;-52
2023/08/05 12:17:09;;;;;;;3.47;2.50;;;;;;;;;;5001560;28;20532;-52
2023/08/05 12:19:35;;;;;;;3.17;2.73;;;;;;;;;;5023105;28;20303;-51
2023/08/05 12:22:01;;;;;;;2.57;2.37;;;;;;;;;;5022308;28;20209;-53
2023/08/05 12:24:27;;;;;;;3.67;2.73;;;;;;;;;;5022883;28;20298;-51
2023/08/05 12:26:54;;;;;;;2.70;2.50;;;;;;;;;;5020560;28;20816;-51
2023/08/05 12:29:20;;;;;;;3.00;2.70;;;;;;;;;;5021160;28;20596;-51
2023/08/05 12:31:46;;;;;;;3.50;2.50;;;;;;;;;;5014191;28;20305;-51
2023/08/05 12:34:12;;;;;;;2.77;2.57;;;;;;;;;;5020928;28;20263;-50
2023/08/05 12:36:39;;;;;;;2.57;2.37;;;;;;;;;;5020395;28;20329;-50
2023/08/05 12:39:07;;;;;;;3.20;2.43;;;;;;;;;;5020914;28;20305;-49
2023/08/05 12:41:33;;;;;;;2.97;2.43;;;;;;;;;;5023537;28;20193;-51
2023/08/05 12:43:59;;;;;;;2.53;2.33;;;;;;;;;;5023987;28;20543;-51
2023/08/05 12:46:25;;;;;;;4.50;2.63;;;;;;;;;;5021030;28;20195;-51
2023/08/05 12:48:51;;;;;;;2.73;2.53;;;;;;;;;;5025047;28;20225;-51
2023/08/05 12:51:18;;;;;;;3.03;2.83;;;;;;;;;;5013710;28;20284;-51
2023/08/05 12:53:44;;;;;;;2.77;2.57;;;;;;;;;;5010284;28;20666;-50
2023/08/05 12:56:11;;;;;;;2.97;2.77;;;;;;;;;;5017434;28;20568;-52
2023/08/05 12:58:37;;;;;;;11.50;3.20;;;;;;;;;;5022772;28;20197;-50
2023/08/05 13:01:04;;;;;;;4.03;2.40;;;;;;;;;;5017745;28;20365;-52
2023/08/05 13:03:30;;;;;;;6.40;3.80;;;;;;;;;;5017698;28;21780;-55
2023/08/05 13:05:56;;;;;;;5.43;4.00;;;;;;;;;;5022995;28;20194;-55
2023/08/05 13:08:22;;;;;;;7.03;4.47;;;;;;;;;;4999062;28;20556;-55
2023/08/05 13:10:48;;;;;;;5.77;4.77;;;;;;;;;;5001274;28;20197;-53
2023/08/05 13:13:14;;;;;;;5.17;3.23;;;;;;;;;;5021180;28;20656;-54
2023/08/05 13:15:41;;;;;;;4.00;3.00;;;;;;;;;;5017828;28;20190;-53
2023/08/05 13:18:07;;;;;;;4.10;3.63;;;;;;;;;;5014929;28;20499;-53
2023/08/05 13:20:33;;;;;;;4.10;3.37;;;;;;;;;;5017860;28;20199;-54
2023/08/05 13:22:59;;;;;;;6.77;4.70;;;;;;;;;;5017262;28;20201;-53
2023/08/05 13:25:25;;;;;;;6.17;4.50;;;;;;;;;;5016040;28;20557;-53
2023/08/05 13:27:52;;;;;;;6.27;4.83;;;;;;;;;;5015267;28;20196;-53
2023/08/05 13:30:20;;;;;;;8.67;7.73;;;;;;;;;;5021155;28;20599;-53
2023/08/05 13:32:47;;;;;;;13.80;8.07;;;;;;;;;;5019243;28;20717;-57
2023/08/05 13:35:13;;;;;;;13.03;7.93;;;;;;;;;;5022754;28;20233;-57
2023/08/05 13:37:40;;;;;;;7.67;6.83;;;;;;;;;;5019053;28;20618;-58
2023/08/05 13:40:07;;;;;;;7.97;6.63;;;;;;;;;;5023371;28;20186;-56
2023/08/05 13:42:34;;;;;;;8.20;5.43;;;;;;;;;;5021599;28;20205;-56
2023/08/05 13:45:00;;;;;;;6.47;4.03;;;;;;;;;;5020650;28;20234;-56
2023/08/05 13:47:26;;;;;;;5.27;4.07;;;;;;;;;;5002870;28;20329;-56
2023/08/05 13:49:52;;;;;;;5.10;4.33;;;;;;;;;;5020861;28;20271;-56
2023/08/05 13:52:18;;;;;;;5.33;4.40;;;;;;;;;;5013790;28;20191;-56
2023/08/05 13:54:54;;;;;;;4.43;4.00;;;;;;;;;;5023437;28;20253;-58
2023/08/05 13:57:21;;;;;;;5.00;4.50;;;;;;;;;;5012367;28;20451;-56
2023/08/05 13:59:47;;;;;;;3.97;3.67;;;;;;;;;;5001538;28;20298;-56
2023/08/05 14:02:13;;;;;;;3.63;3.33;;;;;;;;;;5020299;28;20195;-56
2023/08/05 14:04:43;;;;;;;3.90;3.50;;;;;;;;;;5021730;28;20198;-56
2023/08/05 14:07:09;;;;;;;3.77;3.33;;;;;;;;;;5021329;28;20654;-56
2023/08/05 14:09:36;;;;;;;4.10;3.70;;;;;;;;;;5023644;28;20196;-57
2023/08/05 14:12:03;;;;;;;4.97;3.50;;;;;;;;;;5021204;28;20186;-56
2023/08/05 14:14:29;;;;;;;4.13;3.70;;;;;;;;;;5023026;28;20210;-56
2023/08/05 14:16:55;;;;;;;5.30;4.10;;;;;;;;;;5023109;28;20203;-56
2023/08/05 14:19:21;;;;;;;4.90;3.80;;;;;;;;;;5006882;28;20195;-56
2023/08/05 14:21:47;;;;;;;3.90;3.50;;;;;;;;;;5023598;28;20638;-56
2023/08/05 14:24:13;;;;;;;4.27;3.73;;;;;;;;;;5017596;28;20723;-56
2023/08/05 14:26:39;;;;;;;4.03;3.73;;;;;;;;;;5027661;28;20305;-56
2023/08/05 14:29:06;;;;;;;4.97;4.57;;;;;;;;;;5024400;28;20286;-57
2023/08/05 14:31:33;;;;;;;4.37;4.00;;;;;;;;;;5022126;28;20751;-56
2023/08/05 14:34:00;;;;;;;4.60;4.20;;;;;;;;;;5028878;28;20218;-55
2023/08/05 14:36:26;;;;;;;4.60;4.20;;;;;;;;;;5021461;28;20229;-56